Time;durP1;ratioP1;P1;durP2;ratioP2;P2;SDS_P1;SDS_P2;PMS_P1;PMS_P2;Temp;Humidity;BMP_temperature;BMP_pressure;BME280_temperature;BME280_humidity;BME280_pressure;Samples;Min_cycle;Max_cycle;Signal;HPM_P1;HPM_P2
2022/10/20 00:00:54;;;;;;;7.30;4.72;;;;;;;;;;4912768;29;20079;-70
2022/10/20 00:03:21;;;;;;;11.48;4.70;;;;;;;;;;4914950;29;20088;-70
2022/10/20 00:05:47;;;;;;;12.48;5.50;;;;;;;;;;4914368;29;20044;-70
2022/10/20 00:08:13;;;;;;;13.48;5.50;;;;;;;;;;4913614;29;20054;-71
2022/10/20 00:10:39;;;;;;;8.50;5.10;;;;;;;;;;4913386;29;20474;-71
2022/10/20 00:13:05;;;;;;;8.88;5.32;;;;;;;;;;4896822;29;20100;-71
2022/10/20 00:15:31;;;;;;;8.35;4.80;;;;;;;;;;4914462;29;20040;-70
2022/10/20 00:17:58;;;;;;;8.82;5.25;;;;;;;;;;4896733;29;20434;-71
2022/10/20 00:20:24;;;;;;;9.50;4.88;;;;;;;;;;4914842;29;20055;-71
2022/10/20 00:22:50;;;;;;;17.27;5.57;;;;;;;;;;4897287;29;20060;-71
2022/10/20 00:25:16;;;;;;;10.00;5.18;;;;;;;;;;4889481;29;20110;-71
2022/10/20 00:27:42;;;;;;;9.35;5.47;;;;;;;;;;4888418;29;20040;-71
2022/10/20 00:30:09;;;;;;;9.30;5.15;;;;;;;;;;4889743;29;20051;-71
2022/10/20 00:32:35;;;;;;;13.57;5.47;;;;;;;;;;4912676;29;20036;-71
2022/10/20 00:35:01;;;;;;;10.88;4.88;;;;;;;;;;4896584;29;20044;-70
2022/10/20 00:37:27;;;;;;;9.15;5.20;;;;;;;;;;4883011;29;20041;-70
2022/10/20 00:39:53;;;;;;;10.98;5.43;;;;;;;;;;4912388;29;20616;-71
2022/10/20 00:42:19;;;;;;;11.90;5.65;;;;;;;;;;4913004;29;20508;-71
2022/10/20 00:44:53;;;;;;;13.90;5.53;;;;;;;;;;4880558;29;20056;-71
2022/10/20 00:47:41;;;;;;;8.40;5.25;;;;;;;;;;4911908;29;20063;-71
2022/10/20 00:50:19;;;;;;;12.60;5.80;;;;;;;;;;4891825;29;20052;-71
2022/10/20 00:52:46;;;;;;;11.45;5.65;;;;;;;;;;4896493;29;20393;-71
2022/10/20 00:55:14;;;;;;;7.45;5.32;;;;;;;;;;4875400;29;20040;-71
2022/10/20 00:57:41;;;;;;;8.10;5.28;;;;;;;;;;4897715;29;20036;-70
2022/10/20 01:00:08;;;;;;;8.27;5.43;;;;;;;;;;4872924;29;20131;-70
2022/10/20 01:02:34;;;;;;;8.18;5.10;;;;;;;;;;4912928;29;20040;-70
2022/10/20 01:05:00;;;;;;;10.40;5.13;;;;;;;;;;4911785;29;20104;-71
2022/10/20 01:07:26;;;;;;;10.20;5.35;;;;;;;;;;4896895;29;20116;-70
2022/10/20 01:09:53;;;;;;;8.10;5.32;;;;;;;;;;4911424;29;20087;-70
2022/10/20 01:12:22;;;;;;;11.18;5.07;;;;;;;;;;4912981;29;20040;-71
2022/10/20 01:15:07;;;;;;;11.57;4.80;;;;;;;;;;4912260;29;21484;-70
2022/10/20 01:17:36;;;;;;;9.40;5.25;;;;;;;;;;4914368;29;20040;-70
2022/10/20 01:20:10;;;;;;;9.50;4.95;;;;;;;;;;4912264;29;20035;-71
2022/10/20 01:22:54;;;;;;;9.23;5.00;;;;;;;;;;4872268;29;20099;-70
2022/10/20 01:25:23;;;;;;;8.32;5.20;;;;;;;;;;4888892;29;20037;-70
2022/10/20 01:28:00;;;;;;;7.63;4.93;;;;;;;;;;4917070;29;20036;-71
2022/10/20 01:30:27;;;;;;;13.88;6.22;;;;;;;;;;4869562;29;20473;-71
2022/10/20 01:32:56;;;;;;;8.50;5.18;;;;;;;;;;4915390;29;20048;-71
2022/10/20 01:35:25;;;;;;;18.73;4.90;;;;;;;;;;4869395;29;20103;-70
2022/10/20 01:38:01;;;;;;;9.13;5.35;;;;;;;;;;4915295;29;20036;-71
2022/10/20 01:40:56;;;;;;;9.45;5.32;;;;;;;;;;4915303;29;20045;-71
2022/10/20 01:43:24;;;;;;;7.15;4.70;;;;;;;;;;4866734;29;20045;-70
2022/10/20 01:45:52;;;;;;;6.70;5.07;;;;;;;;;;4915734;29;20088;-70
2022/10/20 01:48:21;;;;;;;11.27;5.57;;;;;;;;;;4917440;29;20048;-70
2022/10/20 01:50:47;;;;;;;9.77;5.55;;;;;;;;;;4902675;29;20048;-71
2022/10/20 01:53:13;;;;;;;11.73;5.25;;;;;;;;;;4870999;29;20047;-70
2022/10/20 01:55:40;;;;;;;8.55;4.65;;;;;;;;;;4881274;29;20131;-71
2022/10/20 01:58:21;;;;;;;8.23;4.78;;;;;;;;;;4891419;29;20457;-71
2022/10/20 02:00:48;;;;;;;11.02;5.28;;;;;;;;;;4914865;29;20047;-70
2022/10/20 02:03:17;;;;;;;9.65;5.20;;;;;;;;;;4874222;29;20047;-70
2022/10/20 02:05:58;;;;;;;8.77;5.20;;;;;;;;;;4914683;29;20044;-71
2022/10/20 02:08:36;;;;;;;6.80;4.82;;;;;;;;;;4914283;29;20048;-70
2022/10/20 02:11:03;;;;;;;10.15;5.45;;;;;;;;;;4914179;29;20549;-70
2022/10/20 02:13:30;;;;;;;10.20;4.97;;;;;;;;;;4876824;29;20059;-70
2022/10/20 02:15:59;;;;;;;11.90;5.10;;;;;;;;;;4888639;29;20048;-70
2022/10/20 02:18:31;;;;;;;10.65;5.45;;;;;;;;;;4916039;29;20044;-71
2022/10/20 02:20:58;;;;;;;8.60;5.00;;;;;;;;;;4915047;29;20051;-71
2022/10/20 02:23:24;;;;;;;11.70;5.00;;;;;;;;;;4914381;29;20044;-70
2022/10/20 02:25:52;;;;;;;13.10;5.40;;;;;;;;;;4916232;29;20040;-71
2022/10/20 02:28:19;;;;;;;8.32;5.03;;;;;;;;;;4872966;29;20048;-69
2022/10/20 02:30:46;;;;;;;7.03;4.85;;;;;;;;;;4914691;29;20088;-70
2022/10/20 02:33:12;;;;;;;11.52;5.57;;;;;;;;;;4890043;29;20051;-70
2022/10/20 02:35:41;;;;;;;11.27;5.50;;;;;;;;;;4899786;29;20059;-71
2022/10/20 02:38:07;;;;;;;9.02;4.85;;;;;;;;;;4897457;29;20054;-70
2022/10/20 02:40:33;;;;;;;11.60;5.10;;;;;;;;;;4895915;29;20036;-70
2022/10/20 02:42:59;;;;;;;9.02;4.90;;;;;;;;;;4892413;29;20508;-70
2022/10/20 02:45:26;;;;;;;11.65;5.38;;;;;;;;;;4899008;29;20044;-70
2022/10/20 02:47:52;;;;;;;10.98;5.13;;;;;;;;;;4914601;29;20119;-71
2022/10/20 02:50:18;;;;;;;9.60;4.88;;;;;;;;;;4915356;29;20369;-71
2022/10/20 02:52:44;;;;;;;8.30;4.90;;;;;;;;;;4887072;29;20044;-71
2022/10/20 02:55:10;;;;;;;9.82;5.82;;;;;;;;;;4882677;29;20123;-71
2022/10/20 02:57:36;;;;;;;9.38;5.22;;;;;;;;;;4894120;29;20072;-71
2022/10/20 03:00:03;;;;;;;10.68;5.28;;;;;;;;;;4916595;29;20036;-72
2022/10/20 03:02:29;;;;;;;7.47;5.22;;;;;;;;;;4889785;29;20040;-72
2022/10/20 03:04:55;;;;;;;8.40;5.05;;;;;;;;;;4900263;29;20119;-71
2022/10/20 03:07:21;;;;;;;10.32;5.10;;;;;;;;;;4893520;29;20048;-71
2022/10/20 03:09:47;;;;;;;6.85;4.80;;;;;;;;;;4913936;29;20114;-71
2022/10/20 03:12:14;;;;;;;10.70;5.80;;;;;;;;;;4885714;29;20083;-71
2022/10/20 03:14:41;;;;;;;8.35;5.13;;;;;;;;;;4890297;29;20112;-72
2022/10/20 03:17:08;;;;;;;9.27;5.50;;;;;;;;;;4884335;29;20401;-72
2022/10/20 03:19:34;;;;;;;7.35;5.05;;;;;;;;;;4887442;29;20040;-71
2022/10/20 03:22:00;;;;;;;13.00;5.57;;;;;;;;;;4882974;29;20044;-72
2022/10/20 03:24:26;;;;;;;9.55;5.05;;;;;;;;;;4915366;29;20036;-72
2022/10/20 03:26:52;;;;;;;9.63;5.13;;;;;;;;;;4899672;29;20044;-71
2022/10/20 03:29:18;;;;;;;12.52;5.05;;;;;;;;;;4913235;29;20496;-72
2022/10/20 03:31:44;;;;;;;13.18;5.57;;;;;;;;;;4867703;29;20055;-72
2022/10/20 03:34:11;;;;;;;10.45;5.25;;;;;;;;;;4915326;29;20048;-72
2022/10/20 03:36:37;;;;;;;8.43;4.85;;;;;;;;;;4899683;29;20036;-72
2022/10/20 03:39:03;;;;;;;8.20;5.20;;;;;;;;;;4895864;29;20055;-72
2022/10/20 03:41:29;;;;;;;8.65;5.45;;;;;;;;;;4899589;29;20033;-72
2022/10/20 03:43:55;;;;;;;14.60;5.53;;;;;;;;;;4879274;29;20055;-72
2022/10/20 03:46:21;;;;;;;10.23;5.18;;;;;;;;;;4896969;29;20052;-72
2022/10/20 03:48:48;;;;;;;10.88;5.07;;;;;;;;;;4912997;29;20055;-72
2022/10/20 03:51:14;;;;;;;9.73;5.38;;;;;;;;;;4915679;29;20062;-72
2022/10/20 03:53:40;;;;;;;13.32;5.38;;;;;;;;;;4913163;29;20048;-72
2022/10/20 03:56:07;;;;;;;9.57;5.60;;;;;;;;;;4913041;29;20033;-72
2022/10/20 03:58:33;;;;;;;10.85;5.20;;;;;;;;;;4914172;29;20036;-72
2022/10/20 04:00:59;;;;;;;9.80;5.65;;;;;;;;;;4878893;29;20044;-72
2022/10/20 04:03:25;;;;;;;8.65;5.07;;;;;;;;;;4887165;29;20126;-72
2022/10/20 04:05:51;;;;;;;7.80;5.10;;;;;;;;;;4898958;29;20538;-71
2022/10/20 04:08:17;;;;;;;11.38;5.28;;;;;;;;;;4887246;29;20041;-72
2022/10/20 04:10:44;;;;;;;12.48;5.55;;;;;;;;;;4912448;29;20063;-72
2022/10/20 04:13:10;;;;;;;10.43;5.53;;;;;;;;;;4913950;29;20045;-72
2022/10/20 04:15:36;;;;;;;7.80;5.60;;;;;;;;;;4899351;29;20447;-72
2022/10/20 04:18:02;;;;;;;10.52;5.93;;;;;;;;;;4888209;29;20041;-72
2022/10/20 04:20:28;;;;;;;10.00;5.93;;;;;;;;;;4888656;29;20092;-72
2022/10/20 04:22:54;;;;;;;9.73;5.70;;;;;;;;;;4912476;29;20512;-72
2022/10/20 04:25:20;;;;;;;13.40;6.45;;;;;;;;;;4882317;29;20047;-71
2022/10/20 04:27:46;;;;;;;11.82;6.03;;;;;;;;;;4886203;29;20382;-72
2022/10/20 04:30:12;;;;;;;9.77;5.93;;;;;;;;;;4915211;29;20035;-72
2022/10/20 04:32:38;;;;;;;9.13;5.47;;;;;;;;;;4897873;29;20036;-72
2022/10/20 04:35:05;;;;;;;10.90;5.70;;;;;;;;;;4867240;29;20127;-73
2022/10/20 04:37:31;;;;;;;8.90;5.75;;;;;;;;;;4879306;29;20047;-72
2022/10/20 04:39:57;;;;;;;8.73;5.35;;;;;;;;;;4886984;29;20078;-72
2022/10/20 04:42:23;;;;;;;9.73;5.95;;;;;;;;;;4899220;29;20083;-72
2022/10/20 04:44:49;;;;;;;10.48;5.68;;;;;;;;;;4897525;29;20036;-71
2022/10/20 04:47:15;;;;;;;10.30;6.20;;;;;;;;;;4913597;29;20111;-72
2022/10/20 04:49:41;;;;;;;12.75;6.18;;;;;;;;;;4875175;29;20040;-72
2022/10/20 04:52:07;;;;;;;11.10;6.45;;;;;;;;;;4881514;29;20127;-72
2022/10/20 04:54:33;;;;;;;11.50;6.20;;;;;;;;;;4895028;29;20135;-72
2022/10/20 04:56:59;;;;;;;9.15;5.80;;;;;;;;;;4890990;29;20045;-73
2022/10/20 04:59:25;;;;;;;9.85;6.32;;;;;;;;;;4897528;29;20036;-72
2022/10/20 05:01:51;;;;;;;8.07;6.43;;;;;;;;;;4900268;29;20127;-72
2022/10/20 05:04:20;;;;;;;11.00;6.20;;;;;;;;;;4891764;29;20056;-72
2022/10/20 05:06:46;;;;;;;10.23;6.18;;;;;;;;;;4881566;29;20055;-72
2022/10/20 05:09:14;;;;;;;13.60;6.40;;;;;;;;;;4881203;29;20517;-72
2022/10/20 05:11:40;;;;;;;12.32;6.97;;;;;;;;;;4881438;29;20135;-72
2022/10/20 05:14:07;;;;;;;12.13;6.70;;;;;;;;;;4881462;29;20135;-72
2022/10/20 05:16:33;;;;;;;10.93;6.65;;;;;;;;;;4902998;29;20047;-71
2022/10/20 05:18:59;;;;;;;9.38;6.80;;;;;;;;;;4900372;29;20058;-72
2022/10/20 05:21:26;;;;;;;10.02;6.97;;;;;;;;;;4900470;29;20123;-71
2022/10/20 05:24:00;;;;;;;10.90;7.13;;;;;;;;;;4900012;29;20052;-72
2022/10/20 05:26:28;;;;;;;12.82;6.93;;;;;;;;;;4899964;29;20508;-72
2022/10/20 05:28:54;;;;;;;11.77;7.47;;;;;;;;;;4884359;29;20048;-72
2022/10/20 05:31:21;;;;;;;10.98;7.15;;;;;;;;;;4899843;29;20156;-72
2022/10/20 05:33:48;;;;;;;13.32;7.05;;;;;;;;;;4899956;29;20400;-72
2022/10/20 05:36:16;;;;;;;11.77;7.82;;;;;;;;;;4886502;29;20044;-72
2022/10/20 05:38:42;;;;;;;13.75;7.82;;;;;;;;;;4892586;29;20051;-72
2022/10/20 05:41:09;;;;;;;12.90;7.85;;;;;;;;;;4869897;29;20115;-72
2022/10/20 05:43:36;;;;;;;16.35;8.10;;;;;;;;;;4908396;29;20136;-72
2022/10/20 05:46:02;;;;;;;9.65;7.45;;;;;;;;;;4908436;29;20044;-72
2022/10/20 05:48:28;;;;;;;12.13;8.38;;;;;;;;;;4895944;29;20044;-71
2022/10/20 05:50:54;;;;;;;11.13;7.90;;;;;;;;;;4911850;29;20054;-71
2022/10/20 05:53:20;;;;;;;11.73;7.57;;;;;;;;;;4884351;29;20048;-71
2022/10/20 05:55:46;;;;;;;14.05;8.30;;;;;;;;;;4887896;29;20049;-73
2022/10/20 05:58:13;;;;;;;15.98;8.57;;;;;;;;;;4885420;29;20040;-72
2022/10/20 06:00:50;;;;;;;13.38;8.75;;;;;;;;;;4893778;29;20048;-72
2022/10/20 06:03:17;;;;;;;16.88;8.57;;;;;;;;;;4893571;29;20052;-71
2022/10/20 06:05:43;;;;;;;11.88;7.90;;;;;;;;;;4889402;29;20088;-72
2022/10/20 06:08:09;;;;;;;11.73;8.10;;;;;;;;;;4869772;29;20131;-71
2022/10/20 06:10:35;;;;;;;10.25;7.50;;;;;;;;;;4886659;29;20092;-74
2022/10/20 06:13:01;;;;;;;13.23;8.55;;;;;;;;;;4888553;29;20060;-71
2022/10/20 06:15:27;;;;;;;12.73;8.20;;;;;;;;;;4911779;29;20472;-70
2022/10/20 06:17:53;;;;;;;11.30;7.75;;;;;;;;;;4914027;29;20142;-70
2022/10/20 06:20:19;;;;;;;16.13;8.95;;;;;;;;;;4912277;29;20048;-71
2022/10/20 06:22:45;;;;;;;13.25;8.75;;;;;;;;;;4895425;29;20048;-72
2022/10/20 06:25:11;;;;;;;16.35;8.93;;;;;;;;;;4887842;29;20036;-71
2022/10/20 06:27:37;;;;;;;14.05;8.27;;;;;;;;;;4889071;29;20136;-71
2022/10/20 06:30:03;;;;;;;12.52;8.52;;;;;;;;;;4890885;29;20040;-71
2022/10/20 06:32:29;;;;;;;13.30;9.43;;;;;;;;;;4911673;29;20051;-71
2022/10/20 06:34:55;;;;;;;15.10;9.63;;;;;;;;;;4888711;29;20534;-71
2022/10/20 06:37:21;;;;;;;13.75;9.32;;;;;;;;;;4902171;29;20063;-71
2022/10/20 06:39:47;;;;;;;13.18;8.60;;;;;;;;;;4902596;29;20036;-70
2022/10/20 06:42:14;;;;;;;12.85;8.57;;;;;;;;;;4891280;29;20052;-72
2022/10/20 06:44:40;;;;;;;15.43;9.57;;;;;;;;;;4916523;29;20052;-72
2022/10/20 06:47:09;;;;;;;15.60;9.35;;;;;;;;;;4886755;29;20188;-78
2022/10/20 06:49:35;;;;;;;15.95;9.52;;;;;;;;;;4902278;29;20070;-78
2022/10/20 06:52:01;;;;;;;13.68;9.00;;;;;;;;;;4901947;29;20048;-77
2022/10/20 06:54:27;;;;;;;14.48;10.45;;;;;;;;;;4886236;29;20044;-72
2022/10/20 06:56:53;;;;;;;15.50;9.77;;;;;;;;;;4867402;29;20052;-72
2022/10/20 06:59:19;;;;;;;13.93;10.27;;;;;;;;;;4914535;29;20040;-73
2022/10/20 07:01:45;;;;;;;12.15;9.30;;;;;;;;;;4914823;29;20142;-72
2022/10/20 07:04:13;;;;;;;13.07;9.77;;;;;;;;;;4916810;29;20099;-72
2022/10/20 07:06:41;;;;;;;16.83;10.25;;;;;;;;;;4902234;29;20087;-72
2022/10/20 07:09:08;;;;;;;13.52;9.57;;;;;;;;;;4899191;29;20044;-72
2022/10/20 07:11:34;;;;;;;13.43;9.70;;;;;;;;;;4894842;29;20051;-73
2022/10/20 07:14:01;;;;;;;15.07;10.02;;;;;;;;;;4914662;29;20053;-72
2022/10/20 07:16:28;;;;;;;14.40;9.85;;;;;;;;;;4917539;29;20044;-69
2022/10/20 07:18:56;;;;;;;19.00;10.93;;;;;;;;;;4899236;29;20504;-72
2022/10/20 07:21:23;;;;;;;18.27;10.95;;;;;;;;;;4893257;29;20574;-72
2022/10/20 07:23:50;;;;;;;15.60;9.45;;;;;;;;;;4901728;29;20393;-72
2022/10/20 07:26:20;;;;;;;16.92;10.38;;;;;;;;;;4901886;29;20055;-72
2022/10/20 07:28:48;;;;;;;23.52;11.35;;;;;;;;;;4901496;29;20120;-72
2022/10/20 07:31:23;;;;;;;16.27;10.57;;;;;;;;;;4901509;29;20048;-72
2022/10/20 07:33:50;;;;;;;16.10;10.52;;;;;;;;;;4901471;29;20511;-72
2022/10/20 07:36:26;;;;;;;15.73;10.40;;;;;;;;;;4901708;29;20040;-72
2022/10/20 07:38:53;;;;;;;14.20;10.75;;;;;;;;;;4886103;29;20508;-72
2022/10/20 07:41:19;;;;;;;16.45;10.40;;;;;;;;;;4901408;29;20496;-72
2022/10/20 07:43:45;;;;;;;14.70;10.05;;;;;;;;;;4901279;29;20044;-72
2022/10/20 07:46:11;;;;;;;16.42;11.10;;;;;;;;;;4901351;29;20048;-72
2022/10/20 07:48:38;;;;;;;13.15;9.52;;;;;;;;;;4901210;29;20044;-72
2022/10/20 07:51:13;;;;;;;16.38;11.32;;;;;;;;;;4900994;29;20048;-70
2022/10/20 07:53:39;;;;;;;14.30;10.77;;;;;;;;;;4899429;29;20071;-72
2022/10/20 07:56:05;;;;;;;19.38;10.95;;;;;;;;;;4916945;29;20040;-73
2022/10/20 07:58:31;;;;;;;18.48;10.57;;;;;;;;;;4899921;29;20046;-71
2022/10/20 08:00:57;;;;;;;14.18;10.50;;;;;;;;;;4895880;29;20064;-72
2022/10/20 08:03:23;;;;;;;15.07;10.85;;;;;;;;;;4913224;29;20059;-72
2022/10/20 08:05:50;;;;;;;19.33;11.25;;;;;;;;;;4913467;29;20044;-73
2022/10/20 08:08:16;;;;;;;16.98;10.43;;;;;;;;;;4900794;29;20043;-73
2022/10/20 08:10:42;;;;;;;18.00;11.35;;;;;;;;;;4900532;29;20059;-72
2022/10/20 08:13:08;;;;;;;16.83;10.77;;;;;;;;;;4897911;29;20048;-72
2022/10/20 08:15:34;;;;;;;15.77;11.15;;;;;;;;;;4899036;29;20040;-72
2022/10/20 08:18:00;;;;;;;18.80;11.60;;;;;;;;;;4900223;29;20445;-72
2022/10/20 08:20:26;;;;;;;15.80;10.63;;;;;;;;;;4900146;29;20369;-72
2022/10/20 08:22:52;;;;;;;16.23;10.38;;;;;;;;;;4900003;29;20039;-72
2022/10/20 08:25:18;;;;;;;19.58;11.65;;;;;;;;;;4897565;29;20044;-73
2022/10/20 08:27:44;;;;;;;21.13;11.63;;;;;;;;;;4894977;29;20110;-72
2022/10/20 08:30:10;;;;;;;15.77;10.40;;;;;;;;;;4889691;29;20036;-72
2022/10/20 08:32:36;;;;;;;17.45;11.43;;;;;;;;;;4870354;29;20036;-72
2022/10/20 08:35:03;;;;;;;18.02;11.50;;;;;;;;;;4905470;29;20586;-72
2022/10/20 08:37:30;;;;;;;16.17;11.00;;;;;;;;;;4897330;29;20123;-72
2022/10/20 08:39:56;;;;;;;18.45;11.60;;;;;;;;;;4896491;29;20048;-72
2022/10/20 08:42:22;;;;;;;14.13;10.98;;;;;;;;;;4882065;29;20382;-71
2022/10/20 08:44:49;;;;;;;21.67;12.15;;;;;;;;;;4886011;29;20041;-72
2022/10/20 08:47:35;;;;;;;18.33;9.80;;;;;;;;;;4896291;29;20049;-72
2022/10/20 08:50:02;;;;;;;14.77;10.80;;;;;;;;;;4887078;29;20051;-72
2022/10/20 08:52:28;;;;;;;18.13;11.68;;;;;;;;;;4899220;29;20040;-71
2022/10/20 08:54:56;;;;;;;22.17;11.02;;;;;;;;;;4898555;29;20045;-72
2022/10/20 08:57:24;;;;;;;26.30;11.63;;;;;;;;;;4912995;29;20040;-72
2022/10/20 08:59:51;;;;;;;17.95;10.88;;;;;;;;;;4912947;29;20115;-72
2022/10/20 09:02:17;;;;;;;16.40;10.45;;;;;;;;;;4867022;29;20045;-72
2022/10/20 09:04:47;;;;;;;15.77;10.65;;;;;;;;;;4883594;29;20111;-73
2022/10/20 09:07:23;;;;;;;20.85;10.32;;;;;;;;;;4900344;29;20523;-72
2022/10/20 09:09:49;;;;;;;19.88;10.25;;;;;;;;;;4879528;29;20060;-72
2022/10/20 09:12:17;;;;;;;15.55;10.00;;;;;;;;;;4881668;29;20186;-73
2022/10/20 09:14:49;;;;;;;12.38;9.68;;;;;;;;;;4893584;29;20136;-73
2022/10/20 09:17:18;;;;;;;22.05;10.52;;;;;;;;;;4881955;29;20072;-74
2022/10/20 09:20:02;;;;;;;13.52;10.15;;;;;;;;;;4865820;29;20051;-73
2022/10/20 09:22:28;;;;;;;14.68;10.48;;;;;;;;;;4869623;29;20087;-73
2022/10/20 09:25:01;;;;;;;14.65;10.85;;;;;;;;;;4876927;29;20048;-73
2022/10/20 09:27:44;;;;;;;13.70;9.95;;;;;;;;;;4878530;29;20041;-74
2022/10/20 09:30:17;;;;;;;15.05;9.73;;;;;;;;;;4863182;29;20044;-74
2022/10/20 09:32:46;;;;;;;18.00;10.48;;;;;;;;;;4874767;29;20048;-74
2022/10/20 09:35:12;;;;;;;12.93;9.30;;;;;;;;;;4845880;29;20087;-73
2022/10/20 09:37:46;;;;;;;15.35;9.38;;;;;;;;;;4881299;29;20056;-73
2022/10/20 09:40:23;;;;;;;15.93;9.50;;;;;;;;;;4880130;29;20048;-73
2022/10/20 09:42:52;;;;;;;17.63;9.85;;;;;;;;;;4879357;29;20492;-73
2022/10/20 09:45:25;;;;;;;12.48;9.77;;;;;;;;;;4883952;29;20567;-73
2022/10/20 09:47:53;;;;;;;17.20;9.25;;;;;;;;;;4885421;29;20131;-73
2022/10/20 09:50:28;;;;;;;13.25;9.43;;;;;;;;;;4887624;29;20044;-71
2022/10/20 09:52:58;;;;;;;13.05;9.98;;;;;;;;;;4869911;29;20032;-73
2022/10/20 09:55:33;;;;;;;13.75;9.10;;;;;;;;;;4885671;29;20176;-71
2022/10/20 09:58:00;;;;;;;16.77;9.98;;;;;;;;;;4881291;29;20048;-72
2022/10/20 10:00:29;;;;;;;18.05;8.88;;;;;;;;;;4883784;29;20096;-72
2022/10/20 10:03:28;;;;;;;12.90;8.98;;;;;;;;;;4882412;29;20564;-71
2022/10/20 10:05:58;;;;;;;11.80;9.25;;;;;;;;;;4856988;29;20068;-72
2022/10/20 10:08:36;;;;;;;15.77;9.40;;;;;;;;;;4874052;29;20169;-71
2022/10/20 10:11:07;;;;;;;13.45;8.68;;;;;;;;;;4901259;29;20055;-71
2022/10/20 10:13:49;;;;;;;13.13;9.18;;;;;;;;;;4886497;29;20515;-72
2022/10/20 10:16:22;;;;;;;10.77;8.77;;;;;;;;;;4888459;29;20191;-72
2022/10/20 10:18:58;;;;;;;14.52;9.20;;;;;;;;;;4877143;29;20113;-71
2022/10/20 10:21:29;;;;;;;13.30;8.98;;;;;;;;;;4903386;29;20055;-72
2022/10/20 10:24:03;;;;;;;17.13;8.55;;;;;;;;;;4887264;29;20055;-72
2022/10/20 10:26:44;;;;;;;14.20;8.98;;;;;;;;;;4887074;29;20052;-71
2022/10/20 10:29:25;;;;;;;13.23;8.80;;;;;;;;;;4882846;29;20052;-73
2022/10/20 10:32:10;;;;;;;13.45;9.23;;;;;;;;;;4867305;29;20040;-72
2022/10/20 10:34:36;;;;;;;12.65;9.13;;;;;;;;;;4909939;29;20523;-72
2022/10/20 10:37:02;;;;;;;16.02;8.43;;;;;;;;;;4883117;29;20045;-72
2022/10/20 10:39:35;;;;;;;12.93;8.90;;;;;;;;;;4888322;29;20099;-72
2022/10/20 10:42:04;;;;;;;13.20;9.10;;;;;;;;;;4899691;29;20131;-72
2022/10/20 10:44:37;;;;;;;11.38;8.98;;;;;;;;;;4886480;29;20048;-71
2022/10/20 10:47:22;;;;;;;14.90;9.80;;;;;;;;;;4889802;29;20382;-71
2022/10/20 10:49:48;;;;;;;10.55;8.68;;;;;;;;;;4888173;29;20532;-71
2022/10/20 10:52:14;;;;;;;15.77;9.30;;;;;;;;;;4884718;29;20497;-71
2022/10/20 10:54:40;;;;;;;10.93;8.27;;;;;;;;;;4890189;29;20454;-71
2022/10/20 10:57:22;;;;;;;11.80;7.88;;;;;;;;;;4888180;29;20044;-71
2022/10/20 10:59:50;;;;;;;16.55;8.45;;;;;;;;;;4889200;29;20493;-70
2022/10/20 11:02:36;;;;;;;16.70;9.40;;;;;;;;;;4883852;29;20128;-71
2022/10/20 11:05:19;;;;;;;11.10;8.63;;;;;;;;;;4917714;29;20055;-70
2022/10/20 11:07:49;;;;;;;14.20;9.25;;;;;;;;;;4901514;29;20040;-71
2022/10/20 11:10:28;;;;;;;17.83;9.27;;;;;;;;;;4875882;29;20065;-70
2022/10/20 11:12:57;;;;;;;14.13;9.07;;;;;;;;;;4865147;29;20076;-70
2022/10/20 11:15:44;;;;;;;12.57;9.70;;;;;;;;;;4897837;29;20053;-70
2022/10/20 11:18:16;;;;;;;11.80;8.68;;;;;;;;;;4884974;29;20100;-72
2022/10/20 11:20:42;;;;;;;14.35;8.60;;;;;;;;;;4881695;29;20041;-71
2022/10/20 11:23:27;;;;;;;14.05;9.50;;;;;;;;;;4889569;29;20049;-70
2022/10/20 11:25:53;;;;;;;17.58;9.07;;;;;;;;;;4883239;29;20132;-72
2022/10/20 11:28:22;;;;;;;17.75;8.77;;;;;;;;;;4883586;29;20052;-73
2022/10/20 11:30:48;;;;;;;12.90;8.88;;;;;;;;;;4865847;29;20061;-72
2022/10/20 11:33:16;;;;;;;14.73;8.50;;;;;;;;;;4898626;29;20059;-72
2022/10/20 11:35:45;;;;;;;14.38;9.23;;;;;;;;;;4882507;29;20045;-72
2022/10/20 11:38:18;;;;;;;18.30;9.10;;;;;;;;;;4882820;29;20047;-72
2022/10/20 11:40:46;;;;;;;13.05;8.95;;;;;;;;;;4867614;29;20172;-72
2022/10/20 11:43:17;;;;;;;12.65;8.63;;;;;;;;;;4874418;29;20044;-73
2022/10/20 11:45:53;;;;;;;13.35;9.18;;;;;;;;;;4868537;29;20045;-72
2022/10/20 11:48:25;;;;;;;11.55;9.18;;;;;;;;;;4883110;29;20045;-74
2022/10/20 11:50:51;;;;;;;;;;;;;;;;;;4879474;29;20037;-73
2022/10/20 11:53:36;;;;;;;14.57;9.18;;;;;;;;;;4870789;29;19930;-73
2022/10/20 11:56:11;;;;;;;13.68;9.23;;;;;;;;;;4868511;29;20120;-73
2022/10/20 11:58:46;;;;;;;11.95;9.02;;;;;;;;;;4895097;29;20041;-73
2022/10/20 12:01:18;;;;;;;12.77;9.40;;;;;;;;;;4864798;29;20081;-73
2022/10/20 12:03:57;;;;;;;13.50;8.88;;;;;;;;;;4878942;29;20136;-73
2022/10/20 12:06:26;;;;;;;11.57;8.73;;;;;;;;;;4873467;29;20374;-73
2022/10/20 12:09:12;;;;;;;17.30;9.35;;;;;;;;;;4863650;29;20128;-73
2022/10/20 12:11:48;;;;;;;20.77;9.73;;;;;;;;;;4862689;29;20525;-73
2022/10/20 12:14:20;;;;;;;14.48;9.60;;;;;;;;;;4879048;29;20045;-69
2022/10/20 12:16:52;;;;;;;16.15;9.70;;;;;;;;;;4871619;29;20379;-73
2022/10/20 12:19:20;;;;;;;13.45;9.95;;;;;;;;;;4895164;29;20067;-73
2022/10/20 12:21:57;;;;;;;12.00;8.88;;;;;;;;;;4897168;29;20049;-73
2022/10/20 12:24:32;;;;;;;16.08;9.50;;;;;;;;;;4876026;29;20100;-73
2022/10/20 12:27:07;;;;;;;15.82;9.73;;;;;;;;;;4871046;29;20056;-73
2022/10/20 12:29:33;;;;;;;14.98;9.95;;;;;;;;;;4896837;29;20059;-73
2022/10/20 12:32:24;;;;;;;12.45;9.35;;;11.90;99.90;;;;;;4881324;29;20124;-73
2022/10/20 12:34:54;;;;;;;14.43;9.52;;;;;;;;;;4881875;29;20614;-73
2022/10/20 12:37:25;;;;;;;15.50;9.98;;;;;;;;;;4869016;29;20041;-73
2022/10/20 12:39:52;;;;;;;14.88;9.95;;;;;;;;;;4886063;29;20045;-73
2022/10/20 12:42:19;;;;;;;18.85;9.98;;;;;;;;;;4874461;29;20076;-73
2022/10/20 12:44:45;;;;;;;20.88;9.80;;;;;;;;;;4881829;29;20565;-73
2022/10/20 13:26:54;;;;;;;;;;;;;;;;;;;;;
2022/10/20 13:37:13;;;;;;;;;;;;;;;;;;;;;
2022/10/20 13:50:46;;;;;;;15.70;11.25;;;;;;;;;;4804605;29;20105;-74
2022/10/20 13:53:42;;;;;;;15.98;12.00;;;;;;;;;;4804543;29;20534;-74
2022/10/20 13:57:01;;;;;;;;;;;;;;;;;;;;;
2022/10/20 14:22:13;;;;;;;16.80;12.55;;;;;;;;;;4750651;30;20052;-75
2022/10/20 14:47:55;;;;;;;19.25;13.20;;;;;;;;;;6045607;23;20116;-75
2022/10/20 14:50:26;;;;;;;21.15;13.60;;;;;;;;;;6023913;23;20023;-73
2022/10/20 14:52:52;;;;;;;19.38;13.48;;;;;;;;;;6182230;23;20492;-73
2022/10/20 14:55:36;;;;;;;19.60;13.30;;;;;;;;;;6202114;23;20008;-73
2022/10/20 14:58:02;;;;;;;21.65;14.05;;;;;;;;;;6226074;23;20091;-73
2022/10/20 15:00:29;;;;;;;18.67;13.50;;;;;;;;;;6201216;23;20012;-74
2022/10/20 15:02:57;;;;;;;21.20;13.88;;;;;;;;;;6227672;23;20023;-74
2022/10/20 15:05:26;;;;;;;22.58;13.52;;;;;;;;;;6202553;23;20070;-74
2022/10/20 15:07:53;;;;;;;22.25;13.88;;;;;;;;;;6227446;22;20019;-74
2022/10/20 15:10:21;;;;;;;20.85;13.50;;;;;;;;;;6202454;23;20020;-74
2022/10/20 15:12:48;;;;;;;17.88;13.18;;;;;;;;;;6227414;23;20023;-74
2022/10/20 15:15:22;;;;;;;21.42;14.38;;;;;;;;;;6202325;23;20019;-75
2022/10/20 15:17:50;;;;;;;23.67;14.10;;;;;;;;;;6226122;23;20380;-74
2022/10/20 15:20:29;;;;;;;21.15;13.98;;;;;;;;;;6200259;23;20016;-74
2022/10/20 15:22:55;;;;;;;18.95;13.35;;;;;;;;;;6227120;23;20061;-74
2022/10/20 15:25:21;;;;;;;21.63;14.23;;;;;;;;;;6200714;23;20442;-74
2022/10/20 15:27:47;;;;;;;19.58;14.27;;;;;;;;;;6227466;23;20490;-74
2022/10/20 15:30:17;;;;;;;19.90;13.43;;;;;;;;;;6202606;23;20477;-73
2022/10/20 15:32:43;;;;;;;24.08;14.93;;;;;;;;;;6177473;23;20043;-74
2022/10/20 15:35:13;;;;;;;21.23;13.35;;;;;;;;;;6227206;23;20024;-74
2022/10/20 15:37:39;;;;;;;22.77;14.95;;;;;;;;;;6225903;23;20008;-73
2022/10/20 15:40:05;;;;;;;20.95;14.90;;;;;;;;;;6195456;23;20008;-73
2022/10/20 15:42:31;;;;;;;22.83;14.32;;;;;;;;;;6219900;23;20012;-73
2022/10/20 15:44:58;;;;;;;22.60;14.25;;;;;;;;;;6195272;23;20031;-73
2022/10/20 15:47:24;;;;;;;22.17;14.60;;;;;;;;;;6220557;23;20012;-73
2022/10/20 15:49:50;;;;;;;22.42;14.45;;;;;;;;;;6220919;23;20023;-73
2022/10/20 15:52:16;;;;;;;21.05;14.50;;;;;;;;;;6220722;23;20008;-73
2022/10/20 15:54:43;;;;;;;20.40;14.80;;;;;;;;;;6220772;23;20016;-73
2022/10/20 15:57:09;;;;;;;23.63;15.68;;;;;;;;;;6220822;23;20071;-73
2022/10/20 15:59:35;;;;;;;21.13;14.55;;;;;;;;;;6222618;23;20016;-74
2022/10/20 16:02:01;;;;;;;22.17;16.08;;;;;;;;;;6221535;23;20012;-73
2022/10/20 16:04:30;;;;;;;21.80;14.82;;;;;;;;;;6225420;23;20012;-72
2022/10/20 16:06:56;;;;;;;22.90;15.35;;;;;;;;;;6208611;23;20008;-73
2022/10/20 16:09:22;;;;;;;21.75;14.68;;;;;;;;;;6201394;23;20016;-73
2022/10/20 16:11:49;;;;;;;23.25;15.57;;;;;;;;;;6200936;23;20012;-73
2022/10/20 16:14:15;;;;;;;27.33;16.30;;;;;;;;;;6199764;23;20012;-74
2022/10/20 16:16:43;;;;;;;24.58;16.17;;;;;;;;;;6222161;23;20016;-73
2022/10/20 16:19:13;;;;;;;26.67;15.93;;;;;;;;;;6197124;23;20035;-75
2022/10/20 16:21:40;;;;;;;21.35;15.77;;;;;;;;;;6169671;23;20091;-73
2022/10/20 16:24:06;;;;;;;22.23;14.77;;;;;;;;;;6220164;23;20018;-73
2022/10/20 16:26:32;;;;;;;28.08;16.45;;;;;;;;;;6219690;23;20458;-72